ADDS METAR Data INFO
IDs: Format: Raw Decoded Include TAF

Data at: 0310 UTC 20 Jul 2018

KCVO 200256Z AUTO 30009KT 10SM CLR 22/11 A3012 RMK AO2 SLP200 T02170106 55002
KCVO 200156Z AUTO 35013KT 310V040 10SM CLR 24/10 A3011 RMK AO2 SLP196 T02390100
KCVO 200056Z AUTO 02013G18KT 10SM CLR 24/10 A3012 RMK AO2 SLP197 T02440100
KCVO 192356Z AUTO 03009G19KT 360V060 10SM CLR 24/10 A3013 RMK AO2 SLP201 T02440100 10244 20178 56019
KCVO 192256Z AUTO 02012KT 10SM CLR 24/10 A3014 RMK AO2 SLP205 T02440100
KCVO 192156Z AUTO VRB04G15KT 10SM FEW046 23/10 A3016 RMK AO2 SLP213 T02280100
KCVO 191956Z AUTO VRB05KT 10SM OVC034 19/10 A3020 RMK AO2 SLP227 T01940100
KCVO 191856Z AUTO 02005KT 10SM OVC030 18/11 A3021 RMK AO2 SLP231 T01830106
KCVO 191827Z AUTO 01007KT 10SM BKN028 OVC033 18/11 A3021 RMK AO2
KCVO 191756Z AUTO 01008KT 340V040 10SM OVC031 18/11 A3022 RMK AO2 SLP233 T01830106 10183 20139 50003
KCVO 191656Z AUTO 36006KT 10SM BKN022 OVC027 16/11 A3022 RMK AO2 SLP234 T01610106
KCVO 191556Z AUTO 32003KT 10SM OVC022 16/11 A3022 RMK AO2 SLP233 T01560106
KCVO 191456Z AUTO 31006KT 10SM OVC022 15/11 A3021 RMK AO2 SLP229 T01500106 53013
KCVO 191356Z AUTO 32008KT 10SM OVC022 14/10 A3019 RMK AO2 SLP225 T01440100
KCVO 191256Z AUTO 33008KT 10SM OVC022 14/10 A3018 RMK AO2 SLP220 T01390100
KCVO 191156Z AUTO 33009KT 10SM BKN022 13/10 A3017 RMK AO2 SLP216 T01330100 10178 20133 52013
KCVO 191056Z AUTO 31010KT 10SM CLR 14/11 A3016 RMK AO2 SLP212 T01390106
KCVO 190956Z AUTO 32011KT 10SM CLR 14/11 A3015 RMK AO2 SLP208 T01390106
KCVO 190856Z AUTO 31012KT 10SM CLR 14/11 A3013 RMK AO2 SLP204 T01440111 53003
KCVO 190756Z AUTO 31014KT 10SM CLR 15/11 A3013 RMK AO2 SLP203 T01500111 403110122
KCVO 190656Z AUTO 30014KT 10SM CLR 16/11 A3013 RMK AO2 SLP201 T01610111
KCVO 190556Z AUTO 31016KT 10SM CLR 18/12 A3013 RMK AO2 SLP201 T01780117 10311 20178 52012
KCVO 190456Z AUTO 30012KT 10SM CLR 19/12 A3012 RMK AO2 SLP198 T01890122
KCVO 190356Z AUTO 32017KT 10SM CLR 21/13 A3010 RMK AO2 SLP192 T02110133
KCVO 190256Z AUTO 30012KT 10SM CLR 25/14 A3009 RMK AO2 SLP190 T02500144 55004
KCVO 190156Z AUTO 32014KT 10SM CLR 28/14 A3009 RMK AO2 SLP189 T02780144
KCVO 190056Z AUTO 32012KT 10SM CLR 30/16 A3009 RMK AO2 SLP190 T03000161
KCVO 182356Z AUTO 03008KT 10SM CLR 31/15 A3010 RMK AO2 SLP193 T03110150 10311 20222 56020
KCVO 182256Z AUTO 05007KT 10SM CLR 31/14 A3012 RMK AO2 SLP198 T03060144
KCVO 182156Z AUTO 05009KT 10SM CLR 30/14 A3014 RMK AO2 SLP205 T03000139
KCVO 182056Z AUTO VRB04G15KT 10SM CLR 28/13 A3016 RMK AO2 SLP214 T02830133 58015
KCVO 181956Z AUTO 04008KT 10SM CLR 27/14 A3018 RMK AO2 SLP220 T02720139
KCVO 181856Z AUTO VRB04KT 8SM CLR 25/14 A3019 RMK AO2 SLP224 T02500139
KCVO 181756Z AUTO 06005KT 10SM CLR 23/14 A3021 RMK AO2 SLP229 T02280139 10228 20122 58004
KCVO 181656Z AUTO 00000KT 10SM CLR 20/13 A3022 RMK AO2 SLP235 T02000133
KCVO 181556Z AUTO 00000KT 10SM CLR 18/13 A3023 RMK AO2 SLP236 T01780133